createdAt,value
2019-02-21T00:01:22.228Z,17.15
2019-02-21T00:03:48.788Z,12.40
2019-02-21T00:06:15.736Z,15.58
2019-02-21T00:08:42.511Z,17.37
2019-02-21T00:11:09.219Z,14.38
2019-02-21T00:13:36.025Z,17.45
2019-02-21T00:16:02.617Z,19.95
2019-02-21T00:18:29.082Z,14.85
2019-02-21T00:20:55.750Z,14.85
2019-02-21T00:23:22.222Z,13.90
2019-02-21T00:25:48.773Z,13.30
2019-02-21T00:28:15.521Z,15.23
2019-02-21T00:30:42.069Z,15.65
2019-02-21T00:33:08.828Z,16.30
2019-02-21T00:35:35.181Z,16.37
2019-02-21T00:38:01.753Z,14.93
2019-02-21T00:40:28.319Z,18.23
2019-02-21T00:42:54.671Z,18.37
2019-02-21T00:45:21.707Z,22.32
2019-02-21T00:47:48.068Z,21.45
2019-02-21T00:50:14.586Z,19.02
2019-02-21T00:52:41.105Z,15.78
2019-02-21T00:55:07.796Z,16.40
2019-02-21T00:57:34.307Z,15.23
2019-02-21T01:00:00.871Z,17.57
2019-02-21T01:02:27.319Z,18.80
2019-02-21T01:04:54.059Z,27.70
2019-02-21T01:07:20.506Z,15.80
2019-02-21T01:09:46.964Z,16.42
2019-02-21T01:12:13.533Z,18.80
2019-02-21T01:14:40.377Z,18.65
2019-02-21T01:17:06.860Z,20.08
2019-02-21T01:19:33.420Z,18.30
2019-02-21T01:21:59.888Z,21.60
2019-02-21T01:24:26.827Z,24.27
2019-02-21T01:26:53.308Z,21.57
2019-02-21T01:29:19.873Z,17.12
2019-02-21T01:31:46.549Z,15.23
2019-02-21T01:34:13.189Z,17.48
2019-02-21T01:36:39.772Z,23.83
2019-02-21T01:39:06.417Z,14.13
2019-02-21T01:41:32.798Z,24.20
2019-02-21T01:43:59.272Z,17.32
2019-02-21T01:46:26.092Z,16.23
2019-02-21T01:48:52.852Z,17.05
2019-02-21T01:51:19.475Z,15.95
2019-02-21T01:53:45.946Z,17.87
2019-02-21T01:56:12.390Z,15.70
2019-02-21T01:58:38.852Z,15.90
2019-02-21T02:01:08.516Z,17.92
2019-02-21T02:03:34.585Z,22.80
2019-02-21T02:06:01.414Z,20.52
2019-02-21T02:08:28.035Z,18.55
2019-02-21T02:10:54.946Z,15.70
2019-02-21T02:13:24.549Z,19.48
2019-02-21T02:15:49.963Z,18.10
2019-02-21T02:18:16.431Z,18.00
2019-02-21T02:20:42.891Z,20.20
2019-02-21T02:23:09.471Z,17.52
2019-02-21T02:25:36.050Z,18.48
2019-02-21T02:28:02.733Z,19.50
2019-02-21T02:30:29.213Z,16.25
2019-02-21T02:32:55.688Z,16.12
2019-02-21T02:35:22.381Z,22.35
2019-02-21T02:37:48.830Z,16.75
2019-02-21T02:40:15.586Z,18.73
2019-02-21T02:42:42.132Z,18.17
2019-02-21T02:45:08.706Z,21.35
2019-02-21T02:47:35.257Z,19.12
2019-02-21T02:50:01.917Z,18.98
2019-02-21T02:52:28.477Z,19.37
2019-02-21T02:54:54.964Z,16.30
2019-02-21T02:57:21.556Z,17.95
2019-02-21T02:59:48.000Z,16.77
2019-02-21T03:02:14.584Z,16.90
2019-02-21T03:04:41.073Z,16.17
2019-02-21T03:07:07.627Z,16.02
2019-02-21T03:09:34.281Z,23.60
2019-02-21T03:12:00.973Z,17.40
2019-02-21T03:14:27.446Z,16.85
2019-02-21T03:16:54.103Z,17.02
2019-02-21T03:19:20.489Z,21.62
2019-02-21T03:21:46.949Z,17.52
2019-02-21T03:24:13.520Z,17.50
2019-02-21T03:26:40.176Z,17.17
2019-02-21T03:29:06.658Z,15.88
2019-02-21T03:31:33.213Z,15.08
2019-02-21T03:33:59.800Z,19.50
2019-02-21T03:36:26.693Z,16.60
2019-02-21T03:38:53.166Z,17.80
2019-02-21T03:41:19.884Z,20.23
2019-02-21T03:43:46.358Z,16.90
2019-02-21T03:46:12.920Z,15.85
2019-02-21T03:48:39.774Z,18.85
2019-02-21T03:51:06.419Z,15.75
2019-02-21T03:53:33.134Z,13.85
2019-02-21T03:55:59.764Z,17.17
2019-02-21T03:58:26.452Z,16.87
2019-02-21T04:00:53.412Z,20.45
2019-02-21T04:03:19.856Z,16.00
2019-02-21T04:05:46.529Z,18.32
2019-02-21T04:08:12.872Z,17.80
2019-02-21T04:10:39.453Z,17.67
2019-02-21T04:13:06.357Z,20.90
2019-02-21T04:15:32.940Z,17.67
2019-02-21T04:17:59.390Z,17.90
2019-02-21T04:20:25.957Z,21.17
2019-02-21T04:22:52.419Z,19.25
2019-02-21T04:25:18.883Z,21.50
2019-02-21T04:27:45.244Z,17.90
2019-02-21T04:30:11.828Z,17.87
2019-02-21T04:32:38.314Z,16.65
2019-02-21T04:35:04.884Z,15.85
2019-02-21T04:37:31.245Z,15.78
2019-02-21T04:39:57.754Z,19.15
2019-02-21T04:42:24.386Z,18.90
2019-02-21T04:44:50.788Z,19.12
2019-02-21T04:47:17.244Z,16.62
2019-02-21T04:49:43.797Z,19.23
2019-02-21T04:52:10.303Z,13.40
2019-02-21T04:54:36.749Z,16.27
2019-02-21T04:57:03.221Z,16.52
2019-02-21T04:59:29.915Z,22.05
2019-02-21T05:01:56.469Z,17.27
2019-02-21T05:04:23.010Z,15.75
2019-02-21T05:06:49.705Z,14.58
2019-02-21T05:09:16.519Z,15.95
2019-02-21T05:11:42.996Z,16.55
2019-02-21T05:14:09.562Z,16.30
2019-02-21T05:16:36.153Z,18.45
2019-02-21T05:19:02.705Z,15.95
2019-02-21T05:21:29.578Z,15.65
2019-02-21T05:23:56.313Z,17.62
2019-02-21T05:26:24.680Z,18.48
2019-02-21T05:28:51.174Z,15.95
2019-02-21T05:31:22.280Z,19.20
2019-02-21T05:33:56.544Z,18.57
2019-02-21T05:36:31.063Z,21.35
2019-02-21T05:39:02.458Z,18.55
2019-02-21T05:41:33.942Z,20.15
2019-02-21T05:44:08.260Z,24.50
2019-02-21T05:46:36.623Z,18.10
2019-02-21T05:49:08.097Z,15.45
2019-02-21T05:51:48.310Z,20.40
2019-02-21T05:54:17.129Z,15.85
2019-02-21T05:57:00.356Z,19.62
2019-02-21T05:59:46.580Z,18.82
2019-02-21T06:02:17.797Z,25.25
2019-02-21T06:04:55.438Z,20.68
2019-02-21T06:07:29.853Z,22.10
2019-02-21T06:09:58.430Z,23.85
2019-02-21T06:12:33.503Z,17.50
2019-02-21T06:15:00.443Z,22.65
2019-02-21T06:17:37.794Z,27.15
2019-02-21T06:20:19.065Z,21.12
2019-02-21T06:22:47.452Z,37.00
2019-02-21T06:25:16.014Z,27.13
2019-02-21T06:27:50.453Z,25.27
2019-02-21T06:30:27.667Z,33.00
2019-02-21T06:33:04.494Z,36.23
2019-02-21T06:35:22.519Z,26.97
2019-02-21T06:37:48.988Z,28.00
2019-02-21T06:40:15.547Z,23.95
2019-02-21T06:42:42.095Z,21.85
2019-02-21T06:45:09.593Z,23.70
2019-02-21T06:47:36.045Z,26.57
2019-02-21T06:50:03.522Z,20.43
2019-02-21T06:52:30.064Z,24.05
2019-02-21T06:54:56.653Z,33.83
2019-02-21T06:57:23.105Z,27.98
2019-02-21T06:59:49.689Z,28.20
2019-02-21T07:02:16.244Z,25.35
2019-02-21T07:04:42.815Z,20.55
2019-02-21T07:07:09.533Z,25.60
2019-02-21T07:09:35.922Z,25.80
2019-02-21T07:12:02.843Z,23.62
2019-02-21T07:14:29.571Z,24.57
2019-02-21T07:16:56.131Z,22.00
2019-02-21T07:19:22.728Z,28.30
2019-02-21T07:21:49.173Z,27.85
2019-02-21T07:24:18.006Z,36.63
2019-02-21T07:26:44.160Z,30.72
2019-02-21T07:29:10.543Z,30.75
2019-02-21T07:31:37.015Z,25.82
2019-02-21T07:34:03.616Z,27.85
2019-02-21T07:36:29.976Z,24.63
2019-02-21T07:39:08.425Z,24.57
2019-02-21T07:41:24.919Z,25.88
2019-02-21T07:43:51.947Z,25.15
2019-02-21T07:46:18.441Z,32.73
2019-02-21T07:48:44.893Z,25.62
2019-02-21T07:51:13.534Z,23.57
2019-02-21T07:53:39.815Z,29.45
2019-02-21T07:56:06.207Z,26.25
2019-02-21T07:58:32.670Z,31.35
2019-02-21T08:00:59.407Z,29.95
2019-02-21T08:03:31.996Z,24.07
2019-02-21T08:05:54.706Z,26.75
2019-02-21T08:08:21.354Z,24.32
2019-02-21T08:10:47.953Z,28.17
2019-02-21T08:13:14.406Z,21.45
2019-02-21T08:15:40.989Z,24.02
2019-02-21T08:18:07.550Z,25.48
2019-02-21T08:20:40.403Z,26.25
2019-02-21T08:23:03.111Z,25.40
2019-02-21T08:25:29.696Z,26.65
2019-02-21T08:27:56.210Z,23.65
2019-02-21T08:30:23.286Z,29.32
2019-02-21T08:33:00.810Z,21.70
2019-02-21T08:35:27.658Z,25.50
2019-02-21T08:37:54.354Z,22.93
2019-02-21T08:40:21.014Z,26.93
2019-02-21T08:42:47.604Z,22.00
2019-02-21T08:45:14.164Z,23.73
2019-02-21T08:47:40.747Z,28.67
2019-02-21T08:50:07.393Z,23.22
2019-02-21T08:52:33.898Z,20.95
2019-02-21T08:55:00.921Z,23.60
2019-02-21T08:57:27.529Z,23.62
2019-02-21T08:59:53.980Z,26.12
2019-02-21T09:02:20.749Z,32.10
2019-02-21T09:04:47.187Z,24.47
2019-02-21T09:07:13.671Z,24.93
2019-02-21T09:09:40.411Z,41.70
2019-02-21T09:12:07.082Z,27.00
2019-02-21T09:14:33.536Z,21.83
2019-02-21T09:16:59.993Z,23.27
2019-02-21T09:19:26.593Z,24.70
2019-02-21T09:21:53.606Z,23.93
2019-02-21T09:24:37.743Z,31.42
2019-02-21T09:26:48.530Z,26.35
2019-02-21T09:29:15.033Z,28.03
2019-02-21T09:31:41.477Z,27.47
2019-02-21T09:34:08.218Z,26.17
2019-02-21T09:36:34.772Z,27.33
2019-02-21T09:39:01.579Z,27.60
2019-02-21T09:41:28.760Z,27.60
2019-02-21T09:43:55.515Z,27.10
2019-02-21T09:46:22.241Z,32.55
2019-02-21T09:48:48.830Z,29.67
2019-02-21T09:51:18.031Z,24.87
2019-02-21T09:53:43.599Z,24.47
2019-02-21T09:56:10.534Z,25.97
2019-02-21T09:58:37.020Z,28.60
2019-02-21T10:01:03.476Z,32.10
2019-02-21T10:03:29.956Z,29.80
2019-02-21T10:05:56.430Z,25.03
2019-02-21T10:08:22.932Z,32.83
2019-02-21T10:10:49.609Z,25.50
2019-02-21T10:13:16.174Z,36.40
2019-02-21T10:15:42.735Z,28.33
2019-02-21T10:18:09.206Z,35.93
2019-02-21T10:20:35.776Z,35.77
2019-02-21T10:23:02.464Z,35.60
2019-02-21T10:25:29.500Z,34.27
2019-02-21T10:27:58.875Z,31.97
2019-02-21T10:30:24.936Z,41.30
2019-02-21T10:32:51.401Z,28.17
2019-02-21T10:35:17.894Z,26.30
2019-02-21T10:37:44.563Z,30.70
2019-02-21T10:40:12.934Z,31.70
2019-02-21T10:42:39.588Z,33.00
2019-02-21T10:45:09.692Z,31.07
2019-02-21T10:47:36.186Z,29.63
2019-02-21T10:50:06.260Z,34.00
2019-02-21T10:52:32.822Z,35.30
2019-02-21T10:54:59.317Z,36.70
2019-02-21T10:57:25.756Z,41.93
2019-02-21T10:59:52.125Z,25.70
2019-02-21T11:02:18.732Z,29.60
2019-02-21T11:04:54.472Z,33.27
2019-02-21T11:07:13.540Z,49.07
2019-02-21T11:09:40.101Z,35.90
2019-02-21T11:12:06.476Z,34.03
2019-02-21T11:14:32.844Z,30.00
2019-02-21T11:16:59.354Z,38.17
2019-02-21T11:19:26.082Z,29.60
2019-02-21T11:21:52.912Z,28.80
2019-02-21T11:24:19.359Z,31.20
2019-02-21T11:26:45.943Z,28.60
2019-02-21T11:29:12.534Z,26.70
2019-02-21T11:31:39.202Z,31.03
2019-02-21T11:34:05.747Z,27.23
2019-02-21T11:36:32.309Z,28.10
2019-02-21T11:38:58.881Z,25.60
2019-02-21T11:41:25.456Z,31.80
2019-02-21T11:43:52.181Z,33.70
2019-02-21T11:46:18.570Z,30.90
2019-02-21T11:48:45.012Z,28.10
2019-02-21T11:51:12.580Z,30.73
2019-02-21T11:53:39.057Z,27.50
2019-02-21T11:56:05.729Z,30.10
2019-02-21T11:58:32.280Z,29.73
2019-02-21T12:00:59.123Z,31.63
2019-02-21T12:03:25.588Z,31.53
2019-02-21T12:05:52.457Z,29.97
2019-02-21T12:08:19.202Z,44.70
2019-02-21T12:10:46.025Z,28.70
2019-02-21T12:13:12.514Z,29.23
2019-02-21T12:15:39.097Z,30.57
2019-02-21T12:18:05.552Z,32.53
2019-02-21T12:20:32.000Z,27.37
2019-02-21T12:22:58.486Z,25.27
2019-02-21T12:25:24.945Z,25.43
2019-02-21T12:27:51.746Z,26.30
2019-02-21T12:30:18.820Z,28.47
2019-02-21T12:32:45.891Z,28.47
2019-02-21T12:35:12.652Z,26.23
2019-02-21T12:37:39.537Z,29.10
2019-02-21T12:40:12.565Z,26.50
2019-02-21T12:42:39.065Z,25.10
2019-02-21T12:45:08.996Z,28.67
2019-02-21T12:47:35.472Z,25.23
2019-02-21T12:50:02.558Z,27.47
2019-02-21T12:52:29.147Z,29.63
2019-02-21T12:54:55.819Z,26.93
2019-02-21T12:57:22.215Z,26.77
2019-02-21T12:59:48.664Z,25.10
2019-02-21T13:02:15.252Z,26.20
2019-02-21T13:04:41.709Z,32.53
2019-02-21T13:07:08.476Z,29.93
2019-02-21T13:09:34.985Z,28.03
2019-02-21T13:12:01.556Z,26.47
2019-02-21T13:14:27.913Z,33.37
2019-02-21T13:16:54.392Z,31.27
2019-02-21T13:19:20.947Z,24.53
2019-02-21T13:21:47.425Z,29.83
2019-02-21T13:24:13.977Z,24.93
2019-02-21T13:26:40.564Z,28.13
2019-02-21T13:29:07.322Z,31.50
2019-02-21T13:31:33.875Z,26.60
2019-02-21T13:34:00.348Z,24.67
2019-02-21T13:36:26.921Z,28.40
2019-02-21T13:38:53.477Z,29.67
2019-02-21T13:41:20.100Z,33.40
2019-02-21T13:43:46.636Z,27.67
2019-02-21T13:46:13.453Z,31.67
2019-02-21T13:48:39.915Z,28.70
2019-02-21T13:51:06.580Z,30.60
2019-02-21T13:53:33.164Z,24.27
2019-02-21T13:55:59.805Z,25.53
2019-02-21T13:58:26.267Z,30.47
2019-02-21T14:00:53.112Z,29.87
2019-02-21T14:03:19.600Z,28.13
2019-02-21T14:05:46.051Z,23.17
2019-02-21T14:08:12.400Z,29.00
2019-02-21T14:10:38.779Z,26.27
2019-02-21T14:13:05.446Z,25.03
2019-02-21T14:15:31.900Z,26.17
2019-02-21T14:17:58.346Z,23.40
2019-02-21T14:20:25.304Z,28.73
2019-02-21T14:22:51.882Z,29.00
2019-02-21T14:25:18.398Z,31.80
2019-02-21T14:27:44.854Z,28.57
2019-02-21T14:30:17.182Z,31.37
2019-02-21T14:32:43.637Z,27.10
2019-02-21T14:35:11.539Z,33.40
2019-02-21T14:37:38.054Z,26.23
2019-02-21T14:40:07.229Z,25.10
2019-02-21T14:42:33.713Z,31.00
2019-02-21T14:45:00.634Z,34.63
2019-02-21T14:47:27.124Z,31.87
2019-02-21T14:49:53.585Z,26.03
2019-02-21T14:52:20.332Z,27.67
2019-02-21T14:54:46.894Z,25.37
2019-02-21T14:57:15.304Z,28.00
2019-02-21T14:59:44.537Z,25.07
2019-02-21T15:02:09.925Z,20.25
2019-02-21T15:04:38.192Z,25.12
2019-02-21T15:07:06.496Z,25.13
2019-02-21T15:09:33.091Z,21.70
2019-02-21T15:11:59.572Z,24.23
2019-02-21T15:14:26.128Z,20.70
2019-02-21T15:16:52.599Z,29.10
2019-02-21T15:19:19.170Z,23.93
2019-02-21T15:21:45.933Z,27.60
2019-02-21T15:24:13.139Z,22.47
2019-02-21T15:26:39.989Z,30.40
2019-02-21T15:29:06.435Z,27.53
2019-02-21T15:31:33.018Z,29.63
2019-02-21T15:33:59.464Z,23.93
2019-02-21T15:36:25.937Z,27.73
2019-02-21T15:38:52.398Z,27.30
2019-02-21T15:41:18.872Z,29.20
2019-02-21T15:43:45.319Z,23.00
2019-02-21T15:46:11.796Z,27.70
2019-02-21T15:48:38.295Z,23.93
2019-02-21T15:51:04.719Z,25.10
2019-02-21T15:53:31.341Z,25.87
2019-02-21T15:55:57.730Z,30.57
2019-02-21T15:58:24.293Z,28.70
2019-02-21T16:00:50.972Z,31.93
2019-02-21T16:03:17.421Z,25.53
2019-02-21T16:05:43.998Z,24.20
2019-02-21T16:08:10.666Z,27.33
2019-02-21T16:10:39.754Z,25.50
2019-02-21T16:13:05.686Z,31.23
2019-02-21T16:15:32.547Z,26.83
2019-02-21T16:17:59.235Z,28.07
2019-02-21T16:20:25.872Z,29.25
2019-02-21T16:22:52.500Z,38.17
2019-02-21T16:25:27.642Z,27.27
2019-02-21T16:27:55.482Z,29.73
2019-02-21T16:30:22.494Z,23.63
2019-02-21T16:32:48.984Z,25.83
2019-02-21T16:35:15.536Z,22.40
2019-02-21T16:37:41.999Z,29.80
2019-02-21T16:40:13.790Z,27.03
2019-02-21T16:42:40.235Z,28.50
2019-02-21T16:45:09.120Z,26.63
2019-02-21T16:47:35.785Z,27.80
2019-02-21T16:50:04.084Z,27.37
2019-02-21T16:52:30.643Z,31.30
2019-02-21T16:54:57.141Z,26.70
2019-02-21T16:57:23.786Z,31.63
2019-02-21T16:59:50.199Z,30.03
2019-02-21T17:02:16.733Z,24.60
2019-02-21T17:04:43.399Z,30.53
2019-02-21T17:07:15.233Z,32.73
2019-02-21T17:09:38.304Z,33.37
2019-02-21T17:12:04.965Z,38.37
2019-02-21T17:14:31.459Z,31.30
2019-02-21T17:16:58.188Z,27.97
2019-02-21T17:19:24.824Z,30.40
2019-02-21T17:21:51.404Z,26.97
2019-02-21T17:24:17.876Z,28.43
2019-02-21T17:26:44.360Z,32.77
2019-02-21T17:29:10.824Z,29.10
2019-02-21T17:31:37.405Z,29.33
2019-02-21T17:34:03.893Z,29.47
2019-02-21T17:36:32.665Z,33.00
2019-02-21T17:38:58.880Z,28.87
2019-02-21T17:41:25.373Z,30.57
2019-02-21T17:43:51.924Z,26.40
2019-02-21T17:46:18.410Z,28.80
2019-02-21T17:48:44.899Z,31.20
2019-02-21T17:51:11.577Z,29.27
2019-02-21T17:53:38.132Z,31.73
2019-02-21T17:56:04.917Z,30.40
2019-02-21T17:58:31.480Z,32.23
2019-02-21T18:00:58.088Z,26.85
2019-02-21T18:03:24.553Z,31.65
2019-02-21T18:05:51.140Z,23.23
2019-02-21T18:08:17.584Z,27.97
2019-02-21T18:10:44.076Z,28.30
2019-02-21T18:13:10.512Z,34.33
2019-02-21T18:15:36.959Z,27.70
2019-02-21T18:18:03.462Z,30.10
2019-02-21T18:20:29.920Z,22.55
2019-02-21T18:22:56.432Z,30.00
2019-02-21T18:25:44.397Z,22.48
2019-02-21T18:28:11.073Z,25.57
2019-02-21T18:30:37.740Z,31.60
2019-02-21T18:33:04.339Z,33.45
2019-02-21T18:35:30.797Z,29.20
2019-02-21T18:37:57.636Z,27.00
2019-02-21T18:40:25.420Z,26.10
2019-02-21T18:42:52.124Z,26.65
2019-02-21T18:45:18.944Z,27.00
2019-02-21T18:47:45.404Z,21.62
2019-02-21T18:50:13.295Z,23.12
2019-02-21T18:52:40.004Z,28.05
2019-02-21T18:55:07.197Z,22.05
2019-02-21T18:57:33.860Z,23.12
2019-02-21T19:00:00.483Z,28.57
2019-02-21T19:02:27.217Z,27.62
2019-02-21T19:04:53.784Z,24.85
2019-02-21T19:07:20.246Z,28.67
2019-02-21T19:09:46.730Z,25.45
2019-02-21T19:12:13.391Z,32.60
2019-02-21T19:14:40.176Z,28.42
2019-02-21T19:17:06.831Z,24.32
2019-02-21T19:19:33.525Z,32.80
2019-02-21T19:22:00.094Z,26.85
2019-02-21T19:24:26.792Z,26.45
2019-02-21T19:26:53.359Z,25.57
2019-02-21T19:29:19.803Z,24.47
2019-02-21T19:31:46.500Z,26.48
2019-02-21T19:34:13.998Z,25.97
2019-02-21T19:36:40.773Z,23.25
2019-02-21T19:39:07.741Z,26.82
2019-02-21T19:41:34.324Z,26.33
2019-02-21T19:44:08.321Z,25.23
2019-02-21T19:46:29.271Z,33.30
2019-02-21T19:48:56.237Z,28.98
2019-02-21T19:51:22.820Z,30.85
2019-02-21T19:53:49.464Z,24.53
2019-02-21T19:56:15.984Z,26.95
2019-02-21T19:58:42.723Z,25.60
2019-02-21T20:01:09.380Z,26.33
2019-02-21T20:03:35.871Z,29.52
2019-02-21T20:06:02.806Z,37.83
2019-02-21T20:08:29.627Z,28.47
2019-02-21T20:10:56.168Z,27.77
2019-02-21T20:13:22.845Z,25.85
2019-02-21T20:15:49.603Z,29.30
2019-02-21T20:18:16.012Z,27.07
2019-02-21T20:20:42.694Z,27.50
2019-02-21T20:23:09.425Z,32.00
2019-02-21T20:25:35.957Z,30.52
2019-02-21T20:28:02.621Z,37.70
2019-02-21T20:30:29.498Z,30.10
2019-02-21T20:32:55.966Z,32.03
2019-02-21T20:35:22.671Z,31.15
2019-02-21T20:37:49.125Z,35.80
2019-02-21T20:40:16.214Z,31.12
2019-02-21T20:42:42.881Z,34.45
2019-02-21T20:45:13.356Z,34.63
2019-02-21T20:47:40.014Z,37.63
2019-02-21T20:50:08.612Z,33.60
2019-02-21T20:52:35.368Z,32.65
2019-02-21T20:55:02.252Z,37.45
2019-02-21T20:57:29.145Z,31.82
2019-02-21T20:59:55.711Z,32.88
2019-02-21T21:02:22.396Z,37.30
2019-02-21T21:04:48.959Z,35.48
2019-02-21T21:07:24.819Z,36.13
2019-02-21T21:09:44.378Z,45.73
2019-02-21T21:12:10.975Z,40.12
2019-02-21T21:14:37.431Z,40.15
2019-02-21T21:17:04.032Z,37.17
2019-02-21T21:19:30.865Z,39.00
2019-02-21T21:21:57.468Z,33.13
2019-02-21T21:24:24.154Z,38.70
2019-02-21T21:26:50.881Z,39.90
2019-02-21T21:29:17.545Z,35.28
2019-02-21T21:31:44.117Z,43.83
2019-02-21T21:34:10.624Z,38.30
2019-02-21T21:36:37.284Z,35.70
2019-02-21T21:39:04.183Z,38.17
2019-02-21T21:41:33.339Z,41.92
2019-02-21T21:43:59.824Z,37.30
2019-02-21T21:46:26.396Z,40.70
2019-02-21T21:48:52.968Z,41.33
2019-02-21T21:51:20.097Z,37.33
2019-02-21T21:53:46.580Z,40.00
2019-02-21T21:56:13.233Z,45.43
2019-02-21T21:58:39.825Z,41.37
2019-02-21T22:01:06.592Z,44.70
2019-02-21T22:03:33.616Z,38.23
2019-02-21T22:06:00.212Z,40.78
2019-02-21T22:08:27.058Z,37.33
2019-02-21T22:10:53.651Z,37.27
2019-02-21T22:13:20.213Z,45.67
2019-02-21T22:15:46.799Z,37.53
2019-02-21T22:18:13.461Z,37.10
2019-02-21T22:20:40.108Z,37.50
2019-02-21T22:23:06.849Z,41.92
2019-02-21T22:25:33.601Z,36.35
2019-02-21T22:28:00.180Z,39.75
2019-02-21T22:30:26.682Z,42.00
2019-02-21T22:32:53.459Z,40.75
2019-02-21T22:35:20.072Z,53.70
2019-02-21T22:37:46.518Z,38.60
2019-02-21T22:40:17.557Z,39.50
2019-02-21T22:42:44.315Z,35.60
2019-02-21T22:45:11.088Z,34.25
2019-02-21T22:47:37.580Z,39.30
2019-02-21T22:50:07.551Z,41.83
2019-02-21T22:52:34.127Z,38.78
2019-02-21T22:55:09.302Z,35.30
2019-02-21T22:57:28.881Z,35.00
2019-02-21T22:59:55.441Z,42.98
2019-02-21T23:02:22.516Z,40.35
2019-02-21T23:04:52.785Z,41.75
2019-02-21T23:07:31.480Z,38.15
2019-02-21T23:09:58.062Z,38.85
2019-02-21T23:12:24.847Z,41.50
2019-02-21T23:14:51.432Z,44.65
2019-02-21T23:17:18.005Z,41.00
2019-02-21T23:19:44.509Z,39.15
2019-02-21T23:22:11.469Z,38.42
2019-02-21T23:24:37.934Z,35.23
2019-02-21T23:27:04.726Z,44.27
2019-02-21T23:29:31.482Z,37.53
2019-02-21T23:31:58.039Z,41.88
2019-02-21T23:34:29.154Z,42.38
2019-02-21T23:36:55.799Z,37.23
2019-02-21T23:39:22.398Z,43.13
2019-02-21T23:41:48.856Z,42.35
2019-02-21T23:44:15.548Z,41.75
2019-02-21T23:46:42.404Z,39.67
2019-02-21T23:49:08.893Z,43.42
2019-02-21T23:51:35.344Z,35.28
2019-02-21T23:54:03.393Z,46.45
2019-02-21T23:56:30.033Z,36.33
2019-02-21T23:58:56.487Z,37.80
